sensor_id;sensor_type;location;lat;lon;timestamp;temperature;humidity
50162;DHT22;36061;48.116;11.612;2022-08-25T00:01:43;18.60;99.90
50162;DHT22;36061;48.116;11.612;2022-08-25T00:04:13;18.50;99.90
50162;DHT22;36061;48.116;11.612;2022-08-25T00:06:41;18.50;99.90
50162;DHT22;36061;48.116;11.612;2022-08-25T00:09:08;18.50;99.90
50162;DHT22;36061;48.116;11.612;2022-08-25T00:11:35;18.50;99.90
50162;DHT22;36061;48.116;11.612;2022-08-25T00:14:07;18.50;99.90
50162;DHT22;36061;48.116;11.612;2022-08-25T00:16:33;18.50;99.90
50162;DHT22;36061;48.116;11.612;2022-08-25T00:19:04;18.50;99.90
50162;DHT22;36061;48.116;11.612;2022-08-25T00:21:30;18.50;99.90
50162;DHT22;36061;48.116;11.612;2022-08-25T00:23:57;18.40;99.90
50162;DHT22;36061;48.116;11.612;2022-08-25T00:26:23;18.40;99.90
50162;DHT22;36061;48.116;11.612;2022-08-25T00:28:51;18.40;99.90
50162;DHT22;36061;48.116;11.612;2022-08-25T00:31:19;18.40;99.90
50162;DHT22;36061;48.116;11.612;2022-08-25T00:33:46;18.30;99.90
50162;DHT22;36061;48.116;11.612;2022-08-25T00:36:13;18.30;99.90
50162;DHT22;36061;48.116;11.612;2022-08-25T00:38:40;18.30;99.90
50162;DHT22;36061;48.116;11.612;2022-08-25T00:41:07;18.30;99.90
50162;DHT22;36061;48.116;11.612;2022-08-25T00:43:52;18.20;99.90
50162;DHT22;36061;48.116;11.612;2022-08-25T00:46:27;18.20;99.90
50162;DHT22;36061;48.116;11.612;2022-08-25T00:49:02;18.20;99.90
50162;DHT22;36061;48.116;11.612;2022-08-25T00:51:38;18.10;99.90
50162;DHT22;36061;48.116;11.612;2022-08-25T00:54:06;18.10;99.90
50162;DHT22;36061;48.116;11.612;2022-08-25T00:56:33;18.10;99.90
50162;DHT22;36061;48.116;11.612;2022-08-25T00:59:01;18.10;99.90
50162;DHT22;36061;48.116;11.612;2022-08-25T01:01:27;18.10;99.90
50162;DHT22;36061;48.116;11.612;2022-08-25T01:03:55;18.10;99.90
50162;DHT22;36061;48.116;11.612;2022-08-25T01:06:21;18.10;99.90
50162;DHT22;36061;48.116;11.612;2022-08-25T01:08:48;18.10;99.90
50162;DHT22;36061;48.116;11.612;2022-08-25T01:11:14;18.10;99.90
50162;DHT22;36061;48.116;11.612;2022-08-25T01:13:43;18.10;99.90
50162;DHT22;36061;48.116;11.612;2022-08-25T01:16:10;18.10;99.90
50162;DHT22;36061;48.116;11.612;2022-08-25T01:21:12;18.10;99.90
50162;DHT22;36061;48.116;11.612;2022-08-25T01:23:38;18.00;99.90
50162;DHT22;36061;48.116;11.612;2022-08-25T01:26:14;18.00;99.90
50162;DHT22;36061;48.116;11.612;2022-08-25T01:28:43;18.00;99.90
50162;DHT22;36061;48.116;11.612;2022-08-25T01:31:28;18.00;99.90
50162;DHT22;36061;48.116;11.612;2022-08-25T01:33:55;17.90;99.90
50162;DHT22;36061;48.116;11.612;2022-08-25T01:36:22;17.90;99.90
50162;DHT22;36061;48.116;11.612;2022-08-25T01:38:48;17.90;99.90
50162;DHT22;36061;48.116;11.612;2022-08-25T01:41:20;17.90;99.90
50162;DHT22;36061;48.116;11.612;2022-08-25T01:43:46;18.00;99.90
50162;DHT22;36061;48.116;11.612;2022-08-25T01:46:12;17.90;99.90
50162;DHT22;36061;48.116;11.612;2022-08-25T01:48:38;17.90;99.90
50162;DHT22;36061;48.116;11.612;2022-08-25T01:51:04;17.90;99.90
50162;DHT22;36061;48.116;11.612;2022-08-25T01:53:31;18.00;99.90
50162;DHT22;36061;48.116;11.612;2022-08-25T01:55:57;17.90;99.90
50162;DHT22;36061;48.116;11.612;2022-08-25T01:58:32;18.00;99.90
50162;DHT22;36061;48.116;11.612;2022-08-25T02:01:02;18.00;99.90
50162;DHT22;36061;48.116;11.612;2022-08-25T02:03:29;18.00;99.90
50162;DHT22;36061;48.116;11.612;2022-08-25T02:05:57;17.90;99.90
50162;DHT22;36061;48.116;11.612;2022-08-25T02:08:24;17.90;99.90
50162;DHT22;36061;48.116;11.612;2022-08-25T02:10:51;17.80;99.90
50162;DHT22;36061;48.116;11.612;2022-08-25T02:13:18;17.80;99.90
50162;DHT22;36061;48.116;11.612;2022-08-25T02:15:48;17.70;99.90
50162;DHT22;36061;48.116;11.612;2022-08-25T02:18:16;17.70;99.90
50162;DHT22;36061;48.116;11.612;2022-08-25T02:20:42;17.70;99.90
50162;DHT22;36061;48.116;11.612;2022-08-25T02:23:08;17.60;99.90
50162;DHT22;36061;48.116;11.612;2022-08-25T02:25:36;17.60;99.90
50162;DHT22;36061;48.116;11.612;2022-08-25T02:28:03;17.50;99.90
50162;DHT22;36061;48.116;11.612;2022-08-25T02:30:29;17.50;99.90
50162;DHT22;36061;48.116;11.612;2022-08-25T02:32:55;17.50;99.90
50162;DHT22;36061;48.116;11.612;2022-08-25T02:35:22;17.50;99.90
50162;DHT22;36061;48.116;11.612;2022-08-25T02:37:50;17.50;99.90
50162;DHT22;36061;48.116;11.612;2022-08-25T02:40:16;17.40;99.90
50162;DHT22;36061;48.116;11.612;2022-08-25T02:42:42;17.40;99.90
50162;DHT22;36061;48.116;11.612;2022-08-25T02:45:08;17.40;99.90
50162;DHT22;36061;48.116;11.612;2022-08-25T02:47:34;17.40;99.90
50162;DHT22;36061;48.116;11.612;2022-08-25T02:50:03;17.40;99.90
50162;DHT22;36061;48.116;11.612;2022-08-25T02:52:29;17.30;99.90
50162;DHT22;36061;48.116;11.612;2022-08-25T02:54:55;17.30;99.90
50162;DHT22;36061;48.116;11.612;2022-08-25T02:57:21;17.30;99.90
50162;DHT22;36061;48.116;11.612;2022-08-25T02:59:46;17.30;99.90
50162;DHT22;36061;48.116;11.612;2022-08-25T03:02:14;17.30;99.90
50162;DHT22;36061;48.116;11.612;2022-08-25T03:04:40;17.30;99.90
50162;DHT22;36061;48.116;11.612;2022-08-25T03:07:06;17.20;99.90
50162;DHT22;36061;48.116;11.612;2022-08-25T03:09:32;17.20;99.90
50162;DHT22;36061;48.116;11.612;2022-08-25T03:11:57;17.20;99.90
50162;DHT22;36061;48.116;11.612;2022-08-25T03:14:23;17.20;99.90
50162;DHT22;36061;48.116;11.612;2022-08-25T03:16:49;17.20;99.90
50162;DHT22;36061;48.116;11.612;2022-08-25T03:19:15;17.20;99.90
50162;DHT22;36061;48.116;11.612;2022-08-25T03:21:41;17.30;99.90
50162;DHT22;36061;48.116;11.612;2022-08-25T03:24:07;17.30;99.90
50162;DHT22;36061;48.116;11.612;2022-08-25T03:26:33;17.30;99.90
50162;DHT22;36061;48.116;11.612;2022-08-25T03:29:17;17.20;99.90
50162;DHT22;36061;48.116;11.612;2022-08-25T03:31:43;17.20;99.90
50162;DHT22;36061;48.116;11.612;2022-08-25T03:34:13;17.20;99.90
50162;DHT22;36061;48.116;11.612;2022-08-25T03:36:42;17.20;99.90
50162;DHT22;36061;48.116;11.612;2022-08-25T03:39:08;17.20;99.90
50162;DHT22;36061;48.116;11.612;2022-08-25T03:41:34;17.20;99.90
50162;DHT22;36061;48.116;11.612;2022-08-25T03:44:02;17.10;99.90
50162;DHT22;36061;48.116;11.612;2022-08-25T03:46:33;17.10;99.90
50162;DHT22;36061;48.116;11.612;2022-08-25T03:49:01;17.10;99.90
50162;DHT22;36061;48.116;11.612;2022-08-25T03:51:32;17.10;99.90
50162;DHT22;36061;48.116;11.612;2022-08-25T03:53:59;17.00;99.90
50162;DHT22;36061;48.116;11.612;2022-08-25T03:56:25;17.00;99.90
50162;DHT22;36061;48.116;11.612;2022-08-25T03:58:53;17.00;99.90
50162;DHT22;36061;48.116;11.612;2022-08-25T04:01:19;17.00;99.90
50162;DHT22;36061;48.116;11.612;2022-08-25T04:03:45;16.90;99.90
50162;DHT22;36061;48.116;11.612;2022-08-25T04:06:13;16.90;99.90
50162;DHT22;36061;48.116;11.612;2022-08-25T04:08:39;16.90;99.90
50162;DHT22;36061;48.116;11.612;2022-08-25T04:11:08;16.90;99.90
50162;DHT22;36061;48.116;11.612;2022-08-25T04:13:35;16.90;99.90
50162;DHT22;36061;48.116;11.612;2022-08-25T04:16:03;16.90;99.90
50162;DHT22;36061;48.116;11.612;2022-08-25T04:18:29;16.80;99.90
50162;DHT22;36061;48.116;11.612;2022-08-25T04:21:03;16.80;99.90
50162;DHT22;36061;48.116;11.612;2022-08-25T04:23:29;16.80;99.90
50162;DHT22;36061;48.116;11.612;2022-08-25T04:25:59;16.80;99.90
50162;DHT22;36061;48.116;11.612;2022-08-25T04:28:26;16.80;99.90
50162;DHT22;36061;48.116;11.612;2022-08-25T04:30:52;16.80;99.90
50162;DHT22;36061;48.116;11.612;2022-08-25T04:33:18;16.80;99.90
50162;DHT22;36061;48.116;11.612;2022-08-25T04:35:48;16.90;99.90
50162;DHT22;36061;48.116;11.612;2022-08-25T04:38:14;16.90;99.90
50162;DHT22;36061;48.116;11.612;2022-08-25T04:40:40;16.90;99.90
50162;DHT22;36061;48.116;11.612;2022-08-25T04:43:05;16.90;99.90
50162;DHT22;36061;48.116;11.612;2022-08-25T04:45:38;16.90;99.90
50162;DHT22;36061;48.116;11.612;2022-08-25T04:48:04;16.90;99.90
50162;DHT22;36061;48.116;11.612;2022-08-25T04:50:30;16.90;99.90
50162;DHT22;36061;48.116;11.612;2022-08-25T04:52:58;16.90;99.90
50162;DHT22;36061;48.116;11.612;2022-08-25T04:55:24;16.90;99.90
50162;DHT22;36061;48.116;11.612;2022-08-25T04:57:50;16.90;99.90
50162;DHT22;36061;48.116;11.612;2022-08-25T05:00:16;16.90;99.90
50162;DHT22;36061;48.116;11.612;2022-08-25T05:02:42;17.00;99.90
50162;DHT22;36061;48.116;11.612;2022-08-25T05:05:08;17.30;99.90
50162;DHT22;36061;48.116;11.612;2022-08-25T05:07:34;17.60;99.90
50162;DHT22;36061;48.116;11.612;2022-08-25T05:09:59;17.90;99.90
50162;DHT22;36061;48.116;11.612;2022-08-25T05:12:25;18.10;99.90
50162;DHT22;36061;48.116;11.612;2022-08-25T05:14:52;18.20;99.90
50162;DHT22;36061;48.116;11.612;2022-08-25T05:17:18;18.40;99.90
50162;DHT22;36061;48.116;11.612;2022-08-25T05:19:44;18.50;99.90
50162;DHT22;36061;48.116;11.612;2022-08-25T05:22:10;18.50;99.90
50162;DHT22;36061;48.116;11.612;2022-08-25T05:24:35;18.50;99.90
50162;DHT22;36061;48.116;11.612;2022-08-25T05:27:01;18.50;99.90
50162;DHT22;36061;48.116;11.612;2022-08-25T05:29:28;18.40;99.90
50162;DHT22;36061;48.116;11.612;2022-08-25T05:31:54;18.30;99.90
50162;DHT22;36061;48.116;11.612;2022-08-25T05:34:20;18.20;99.90
50162;DHT22;36061;48.116;11.612;2022-08-25T05:36:47;18.00;99.90
50162;DHT22;36061;48.116;11.612;2022-08-25T05:39:13;17.90;99.90
50162;DHT22;36061;48.116;11.612;2022-08-25T05:41:39;17.90;99.90
50162;DHT22;36061;48.116;11.612;2022-08-25T05:44:05;17.80;99.90
50162;DHT22;36061;48.116;11.612;2022-08-25T05:46:31;17.70;99.90
50162;DHT22;36061;48.116;11.612;2022-08-25T05:48:57;17.70;99.90
50162;DHT22;36061;48.116;11.612;2022-08-25T05:51:23;17.70;99.90
50162;DHT22;36061;48.116;11.612;2022-08-25T05:53:50;17.70;99.90
50162;DHT22;36061;48.116;11.612;2022-08-25T05:56:17;17.70;99.90
50162;DHT22;36061;48.116;11.612;2022-08-25T05:58:43;17.80;99.90
50162;DHT22;36061;48.116;11.612;2022-08-25T06:01:17;17.80;99.90
50162;DHT22;36061;48.116;11.612;2022-08-25T06:04:02;17.90;99.90
50162;DHT22;36061;48.116;11.612;2022-08-25T06:06:27;18.00;99.90
50162;DHT22;36061;48.116;11.612;2022-08-25T06:08:53;18.10;99.90
50162;DHT22;36061;48.116;11.612;2022-08-25T06:11:19;18.20;99.90
50162;DHT22;36061;48.116;11.612;2022-08-25T06:13:45;18.30;99.90
50162;DHT22;36061;48.116;11.612;2022-08-25T06:16:11;18.40;99.90
50162;DHT22;36061;48.116;11.612;2022-08-25T06:18:37;18.50;99.90
50162;DHT22;36061;48.116;11.612;2022-08-25T06:21:10;18.60;99.90
50162;DHT22;36061;48.116;11.612;2022-08-25T06:23:37;18.80;99.90
50162;DHT22;36061;48.116;11.612;2022-08-25T06:26:03;19.00;99.90
50162;DHT22;36061;48.116;11.612;2022-08-25T06:28:29;19.10;99.90
50162;DHT22;36061;48.116;11.612;2022-08-25T06:31:00;19.10;99.90
50162;DHT22;36061;48.116;11.612;2022-08-25T06:33:26;19.20;99.90
50162;DHT22;36061;48.116;11.612;2022-08-25T06:35:53;19.50;99.90
50162;DHT22;36061;48.116;11.612;2022-08-25T06:38:21;19.90;99.90
50162;DHT22;36061;48.116;11.612;2022-08-25T06:40:47;20.20;99.90
50162;DHT22;36061;48.116;11.612;2022-08-25T06:43:13;20.40;99.90
50162;DHT22;36061;48.116;11.612;2022-08-25T06:45:40;20.60;99.90
50162;DHT22;36061;48.116;11.612;2022-08-25T06:48:06;20.70;99.90
50162;DHT22;36061;48.116;11.612;2022-08-25T06:50:32;20.70;99.90
50162;DHT22;36061;48.116;11.612;2022-08-25T06:52:58;20.70;99.90
50162;DHT22;36061;48.116;11.612;2022-08-25T06:55:24;20.60;99.90
50162;DHT22;36061;48.116;11.612;2022-08-25T06:57:52;20.50;99.90
50162;DHT22;36061;48.116;11.612;2022-08-25T07:00:18;20.50;99.90
50162;DHT22;36061;48.116;11.612;2022-08-25T07:02:44;20.50;99.90
50162;DHT22;36061;48.116;11.612;2022-08-25T07:05:11;20.60;99.90
50162;DHT22;36061;48.116;11.612;2022-08-25T07:07:37;20.60;99.90
50162;DHT22;36061;48.116;11.612;2022-08-25T07:10:03;20.60;99.90
50162;DHT22;36061;48.116;11.612;2022-08-25T07:12:29;20.70;99.90
50162;DHT22;36061;48.116;11.612;2022-08-25T07:14:55;20.70;99.90
50162;DHT22;36061;48.116;11.612;2022-08-25T07:17:21;20.60;99.90
50162;DHT22;36061;48.116;11.612;2022-08-25T07:19:48;20.60;99.90
50162;DHT22;36061;48.116;11.612;2022-08-25T07:22:14;20.60;99.90
50162;DHT22;36061;48.116;11.612;2022-08-25T07:24:40;20.50;99.90
50162;DHT22;36061;48.116;11.612;2022-08-25T07:27:06;20.50;99.90
50162;DHT22;36061;48.116;11.612;2022-08-25T07:29:32;20.60;99.90
50162;DHT22;36061;48.116;11.612;2022-08-25T07:32:02;20.60;99.90
50162;DHT22;36061;48.116;11.612;2022-08-25T07:34:28;20.60;99.90
50162;DHT22;36061;48.116;11.612;2022-08-25T07:37:12;20.60;99.90
50162;DHT22;36061;48.116;11.612;2022-08-25T07:39:38;20.70;99.90
50162;DHT22;36061;48.116;11.612;2022-08-25T07:42:04;20.70;99.90
50162;DHT22;36061;48.116;11.612;2022-08-25T07:44:30;20.70;99.90
50162;DHT22;36061;48.116;11.612;2022-08-25T07:46:56;20.70;99.90
50162;DHT22;36061;48.116;11.612;2022-08-25T07:49:24;20.70;99.90
50162;DHT22;36061;48.116;11.612;2022-08-25T07:51:51;20.70;99.90
50162;DHT22;36061;48.116;11.612;2022-08-25T07:54:17;20.70;99.90
50162;DHT22;36061;48.116;11.612;2022-08-25T07:56:43;20.70;99.90
50162;DHT22;36061;48.116;11.612;2022-08-25T07:59:09;20.80;99.90
50162;DHT22;36061;48.116;11.612;2022-08-25T08:01:35;20.80;99.90
50162;DHT22;36061;48.116;11.612;2022-08-25T08:04:02;20.80;99.90
50162;DHT22;36061;48.116;11.612;2022-08-25T08:06:27;20.80;99.90
50162;DHT22;36061;48.116;11.612;2022-08-25T08:08:54;20.90;99.90
50162;DHT22;36061;48.116;11.612;2022-08-25T08:11:23;20.80;99.90
50162;DHT22;36061;48.116;11.612;2022-08-25T08:13:50;20.80;99.90
50162;DHT22;36061;48.116;11.612;2022-08-25T08:16:18;20.90;99.90
50162;DHT22;36061;48.116;11.612;2022-08-25T08:18:45;21.00;99.90
50162;DHT22;36061;48.116;11.612;2022-08-25T08:21:16;21.00;99.90
50162;DHT22;36061;48.116;11.612;2022-08-25T08:23:43;21.10;99.90
50162;DHT22;36061;48.116;11.612;2022-08-25T08:26:09;21.10;99.90
50162;DHT22;36061;48.116;11.612;2022-08-25T08:28:35;21.10;99.90
50162;DHT22;36061;48.116;11.612;2022-08-25T08:31:04;21.20;99.90
50162;DHT22;36061;48.116;11.612;2022-08-25T08:33:30;21.20;99.90
50162;DHT22;36061;48.116;11.612;2022-08-25T08:36:08;21.30;99.90
50162;DHT22;36061;48.116;11.612;2022-08-25T08:38:36;21.40;99.90
50162;DHT22;36061;48.116;11.612;2022-08-25T08:41:15;21.40;99.90
50162;DHT22;36061;48.116;11.612;2022-08-25T08:49:51;21.70;99.90
50162;DHT22;36061;48.116;11.612;2022-08-25T08:52:26;21.70;99.90
50162;DHT22;36061;48.116;11.612;2022-08-25T08:54:58;21.80;99.90
50162;DHT22;36061;48.116;11.612;2022-08-25T08:57:27;22.00;99.90
50162;DHT22;36061;48.116;11.612;2022-08-25T09:00:01;22.00;99.90
50162;DHT22;36061;48.116;11.612;2022-08-25T09:02:53;22.10;99.90
50162;DHT22;36061;48.116;11.612;2022-08-25T09:05:26;22.20;99.90
50162;DHT22;36061;48.116;11.612;2022-08-25T09:07:57;22.30;99.90
50162;DHT22;36061;48.116;11.612;2022-08-25T09:10:28;22.30;99.90
50162;DHT22;36061;48.116;11.612;2022-08-25T09:16:05;22.50;99.90
50162;DHT22;36061;48.116;11.612;2022-08-25T09:19:00;22.60;99.90
50162;DHT22;36061;48.116;11.612;2022-08-25T09:30:02;22.80;99.90
50162;DHT22;36061;48.116;11.612;2022-08-25T09:32:41;22.80;99.90
50162;DHT22;36061;48.116;11.612;2022-08-25T09:35:15;22.70;99.90
50162;DHT22;36061;48.116;11.612;2022-08-25T09:37:53;22.80;99.90
50162;DHT22;36061;48.116;11.612;2022-08-25T09:40:19;22.80;99.90
50162;DHT22;36061;48.116;11.612;2022-08-25T09:42:48;22.80;99.90
50162;DHT22;36061;48.116;11.612;2022-08-25T09:45:14;22.90;99.90
50162;DHT22;36061;48.116;11.612;2022-08-25T09:47:44;22.90;99.90
50162;DHT22;36061;48.116;11.612;2022-08-25T09:50:18;23.00;99.90
50162;DHT22;36061;48.116;11.612;2022-08-25T09:52:44;23.00;99.90
50162;DHT22;36061;48.116;11.612;2022-08-25T10:00:18;23.10;99.90
50162;DHT22;36061;48.116;11.612;2022-08-25T10:03:19;23.20;99.90
50162;DHT22;36061;48.116;11.612;2022-08-25T10:11:11;23.50;99.90
50162;DHT22;36061;48.116;11.612;2022-08-25T10:16:09;23.50;99.90
50162;DHT22;36061;48.116;11.612;2022-08-25T10:18:36;23.60;99.90
50162;DHT22;36061;48.116;11.612;2022-08-25T10:23:42;23.70;99.90
50162;DHT22;36061;48.116;11.612;2022-08-25T10:31:58;24.00;99.90
50162;DHT22;36061;48.116;11.612;2022-08-25T10:34:37;24.10;99.90
50162;DHT22;36061;48.116;11.612;2022-08-25T10:37:20;24.20;99.90
50162;DHT22;36061;48.116;11.612;2022-08-25T10:42:33;24.30;99.90
50162;DHT22;36061;48.116;11.612;2022-08-25T10:45:18;24.30;99.90
50162;DHT22;36061;48.116;11.612;2022-08-25T10:53:22;24.30;99.90
50162;DHT22;36061;48.116;11.612;2022-08-25T10:55:59;24.40;99.90
50162;DHT22;36061;48.116;11.612;2022-08-25T11:06:57;24.60;99.90
50162;DHT22;36061;48.116;11.612;2022-08-25T11:09:28;24.50;99.90
50162;DHT22;36061;48.116;11.612;2022-08-25T11:11:58;24.40;99.90
50162;DHT22;36061;48.116;11.612;2022-08-25T11:14:47;24.40;99.90
50162;DHT22;36061;48.116;11.612;2022-08-25T11:18:08;24.30;99.90
50162;DHT22;36061;48.116;11.612;2022-08-25T11:20:18;24.30;99.90
50162;DHT22;36061;48.116;11.612;2022-08-25T11:22:51;24.30;99.90
50162;DHT22;36061;48.116;11.612;2022-08-25T11:25:33;24.30;99.90
50162;DHT22;36061;48.116;11.612;2022-08-25T11:28:13;24.40;99.90
50162;DHT22;36061;48.116;11.612;2022-08-25T11:30:41;24.60;99.90
50162;DHT22;36061;48.116;11.612;2022-08-25T11:33:13;24.80;99.90
50162;DHT22;36061;48.116;11.612;2022-08-25T11:35:51;24.90;99.90
50162;DHT22;36061;48.116;11.612;2022-08-25T11:41:32;25.00;99.90
50162;DHT22;36061;48.116;11.612;2022-08-25T11:44:25;25.10;99.90
50162;DHT22;36061;48.116;11.612;2022-08-25T11:55:43;25.20;99.90
50162;DHT22;36061;48.116;11.612;2022-08-25T12:00:50;25.20;99.90
50162;DHT22;36061;48.116;11.612;2022-08-25T12:06:31;25.30;99.90
50162;DHT22;36061;48.116;11.612;2022-08-25T12:11:42;25.30;99.90
50162;DHT22;36061;48.116;11.612;2022-08-25T12:27:35;25.50;99.90
50162;DHT22;36061;48.116;11.612;2022-08-25T12:35:58;25.60;99.90
50162;DHT22;36061;48.116;11.612;2022-08-25T12:38:41;25.60;99.90
50162;DHT22;36061;48.116;11.612;2022-08-25T12:41:09;25.80;99.70
50162;DHT22;36061;48.116;11.612;2022-08-25T12:43:49;25.80;99.20
50162;DHT22;36061;48.116;11.612;2022-08-25T12:49:11;25.80;99.20
50162;DHT22;36061;48.116;11.612;2022-08-25T12:51:51;25.80;99.80
50162;DHT22;36061;48.116;11.612;2022-08-25T12:57:49;25.90;99.90
50162;DHT22;36061;48.116;11.612;2022-08-25T13:00:28;25.90;99.90
50162;DHT22;36061;48.116;11.612;2022-08-25T13:06:01;25.70;99.90
50162;DHT22;36061;48.116;11.612;2022-08-25T13:14:37;25.30;99.90
50162;DHT22;36061;48.116;11.612;2022-08-25T13:17:04;25.20;99.90
50162;DHT22;36061;48.116;11.612;2022-08-25T13:19:30;25.10;99.90
50162;DHT22;36061;48.116;11.612;2022-08-25T13:21:57;25.20;99.90
50162;DHT22;36061;48.116;11.612;2022-08-25T13:24:29;25.30;99.90
50162;DHT22;36061;48.116;11.612;2022-08-25T13:27:00;25.30;99.90
50162;DHT22;36061;48.116;11.612;2022-08-25T13:29:29;25.40;99.90
50162;DHT22;36061;48.116;11.612;2022-08-25T13:32:06;25.50;99.90
50162;DHT22;36061;48.116;11.612;2022-08-25T13:34:35;25.50;99.90
50162;DHT22;36061;48.116;11.612;2022-08-25T13:37:09;25.60;99.60
50162;DHT22;36061;48.116;11.612;2022-08-25T13:42:51;25.80;99.30
50162;DHT22;36061;48.116;11.612;2022-08-25T13:45:23;25.80;99.30
50162;DHT22;36061;48.116;11.612;2022-08-25T13:47:49;25.80;99.60
50162;DHT22;36061;48.116;11.612;2022-08-25T13:52:56;26.00;99.10
50162;DHT22;36061;48.116;11.612;2022-08-25T13:55:36;26.10;98.50
50162;DHT22;36061;48.116;11.612;2022-08-25T13:58:02;26.10;98.10
50162;DHT22;36061;48.116;11.612;2022-08-25T14:01:43;26.00;98.20
50162;DHT22;36061;48.116;11.612;2022-08-25T14:03:39;25.90;98.40
50162;DHT22;36061;48.116;11.612;2022-08-25T14:08:43;25.90;99.00
50162;DHT22;36061;48.116;11.612;2022-08-25T14:11:25;26.00;98.90
50162;DHT22;36061;48.116;11.612;2022-08-25T14:14:06;26.00;98.70
50162;DHT22;36061;48.116;11.612;2022-08-25T14:16:48;26.00;98.70
50162;DHT22;36061;48.116;11.612;2022-08-25T14:19:16;26.10;98.30
50162;DHT22;36061;48.116;11.612;2022-08-25T14:21:43;26.20;98.00
50162;DHT22;36061;48.116;11.612;2022-08-25T14:24:15;26.30;97.80
50162;DHT22;36061;48.116;11.612;2022-08-25T14:26:41;26.40;97.50
50162;DHT22;36061;48.116;11.612;2022-08-25T14:31:59;26.40;96.60
50162;DHT22;36061;48.116;11.612;2022-08-25T14:34:32;26.30;96.60
50162;DHT22;36061;48.116;11.612;2022-08-25T14:36:59;26.30;96.50
50162;DHT22;36061;48.116;11.612;2022-08-25T14:39:25;26.40;96.10
50162;DHT22;36061;48.116;11.612;2022-08-25T14:41:51;26.40;96.00
50162;DHT22;36061;48.116;11.612;2022-08-25T14:44:19;26.40;96.10
50162;DHT22;36061;48.116;11.612;2022-08-25T14:46:50;26.40;95.70
50162;DHT22;36061;48.116;11.612;2022-08-25T14:49:21;26.40;96.60
50162;DHT22;36061;48.116;11.612;2022-08-25T14:51:48;26.30;96.90
50162;DHT22;36061;48.116;11.612;2022-08-25T14:54:14;26.30;96.70
50162;DHT22;36061;48.116;11.612;2022-08-25T14:56:43;26.20;96.40
50162;DHT22;36061;48.116;11.612;2022-08-25T14:59:13;26.20;96.50
50162;DHT22;36061;48.116;11.612;2022-08-25T15:01:39;26.20;96.70
50162;DHT22;36061;48.116;11.612;2022-08-25T15:04:12;26.20;97.10
50162;DHT22;36061;48.116;11.612;2022-08-25T15:06:39;26.10;97.10
50162;DHT22;36061;48.116;11.612;2022-08-25T15:09:08;26.10;97.00
50162;DHT22;36061;48.116;11.612;2022-08-25T15:11:38;26.10;97.10
50162;DHT22;36061;48.116;11.612;2022-08-25T15:14:05;26.10;96.80
50162;DHT22;36061;48.116;11.612;2022-08-25T15:16:37;26.10;97.00
50162;DHT22;36061;48.116;11.612;2022-08-25T15:19:08;26.10;96.70
50162;DHT22;36061;48.116;11.612;2022-08-25T15:21:35;26.10;97.00
50162;DHT22;36061;48.116;11.612;2022-08-25T15:24:03;26.10;97.40
50162;DHT22;36061;48.116;11.612;2022-08-25T15:26:29;26.00;97.40
50162;DHT22;36061;48.116;11.612;2022-08-25T15:28:55;26.00;97.50
50162;DHT22;36061;48.116;11.612;2022-08-25T15:31:22;25.90;97.50
50162;DHT22;36061;48.116;11.612;2022-08-25T15:33:48;25.80;97.50
50162;DHT22;36061;48.116;11.612;2022-08-25T15:36:15;25.80;97.60
50162;DHT22;36061;48.116;11.612;2022-08-25T15:38:43;25.80;97.40
50162;DHT22;36061;48.116;11.612;2022-08-25T15:41:09;25.70;97.50
50162;DHT22;36061;48.116;11.612;2022-08-25T15:43:36;25.70;97.60
50162;DHT22;36061;48.116;11.612;2022-08-25T15:46:03;25.70;97.80
50162;DHT22;36061;48.116;11.612;2022-08-25T15:48:30;25.60;98.10
50162;DHT22;36061;48.116;11.612;2022-08-25T15:50:56;25.70;97.80
50162;DHT22;36061;48.116;11.612;2022-08-25T15:53:26;25.80;97.50
50162;DHT22;36061;48.116;11.612;2022-08-25T15:55:54;25.80;97.70
50162;DHT22;36061;48.116;11.612;2022-08-25T15:58:22;25.90;97.50
50162;DHT22;36061;48.116;11.612;2022-08-25T16:00:48;26.00;97.40
50162;DHT22;36061;48.116;11.612;2022-08-25T16:03:14;26.00;97.40
50162;DHT22;36061;48.116;11.612;2022-08-25T16:05:41;25.90;97.30
50162;DHT22;36061;48.116;11.612;2022-08-25T16:08:08;25.90;97.40
50162;DHT22;36061;48.116;11.612;2022-08-25T16:10:34;25.90;97.60
50162;DHT22;36061;48.116;11.612;2022-08-25T16:13:00;25.80;97.80
50162;DHT22;36061;48.116;11.612;2022-08-25T16:15:27;25.80;97.90
50162;DHT22;36061;48.116;11.612;2022-08-25T16:17:54;25.80;98.10
50162;DHT22;36061;48.116;11.612;2022-08-25T16:20:20;25.70;97.60
50162;DHT22;36061;48.116;11.612;2022-08-25T16:22:46;25.70;97.60
50162;DHT22;36061;48.116;11.612;2022-08-25T16:25:13;25.60;97.60
50162;DHT22;36061;48.116;11.612;2022-08-25T16:27:39;25.60;97.70
50162;DHT22;36061;48.116;11.612;2022-08-25T16:30:09;25.60;97.90
50162;DHT22;36061;48.116;11.612;2022-08-25T16:32:37;25.50;97.90
50162;DHT22;36061;48.116;11.612;2022-08-25T16:35:04;25.50;97.90
50162;DHT22;36061;48.116;11.612;2022-08-25T16:37:31;25.50;98.10
50162;DHT22;36061;48.116;11.612;2022-08-25T16:39:58;25.40;98.20
50162;DHT22;36061;48.116;11.612;2022-08-25T16:42:23;25.50;98.00
50162;DHT22;36061;48.116;11.612;2022-08-25T16:44:49;25.50;97.80
50162;DHT22;36061;48.116;11.612;2022-08-25T16:47:15;25.50;97.90
50162;DHT22;36061;48.116;11.612;2022-08-25T16:49:41;25.40;97.80
50162;DHT22;36061;48.116;11.612;2022-08-25T16:52:07;25.40;97.80
50162;DHT22;36061;48.116;11.612;2022-08-25T16:54:53;25.30;98.00
50162;DHT22;36061;48.116;11.612;2022-08-25T16:57:38;25.30;98.20
50162;DHT22;36061;48.116;11.612;2022-08-25T17:00:07;25.30;98.40
50162;DHT22;36061;48.116;11.612;2022-08-25T17:02:35;25.30;98.80
50162;DHT22;36061;48.116;11.612;2022-08-25T17:05:02;25.20;99.10
50162;DHT22;36061;48.116;11.612;2022-08-25T17:07:28;25.10;99.30
50162;DHT22;36061;48.116;11.612;2022-08-25T17:09:54;25.10;99.50
50162;DHT22;36061;48.116;11.612;2022-08-25T17:12:23;25.00;99.60
50162;DHT22;36061;48.116;11.612;2022-08-25T17:14:49;24.90;99.70
50162;DHT22;36061;48.116;11.612;2022-08-25T17:17:15;24.90;99.90
50162;DHT22;36061;48.116;11.612;2022-08-25T17:19:41;24.80;99.90
50162;DHT22;36061;48.116;11.612;2022-08-25T17:22:07;24.80;99.90
50162;DHT22;36061;48.116;11.612;2022-08-25T17:24:33;24.80;99.90
50162;DHT22;36061;48.116;11.612;2022-08-25T17:27:00;24.70;99.90
50162;DHT22;36061;48.116;11.612;2022-08-25T17:29:26;24.70;99.90
50162;DHT22;36061;48.116;11.612;2022-08-25T17:31:52;24.70;99.90